createdAt,value
2022-09-30T00:01:07.616Z,11.65
2022-09-30T00:03:34.331Z,11.57
2022-09-30T00:06:07.849Z,11.64
2022-09-30T00:08:36.937Z,11.69
2022-09-30T00:11:19.148Z,11.62
2022-09-30T00:13:48.221Z,11.78
2022-09-30T00:16:15.784Z,11.75
2022-09-30T00:18:43.723Z,11.68
2022-09-30T00:21:11.487Z,11.67
2022-09-30T00:23:39.047Z,11.71
2022-09-30T00:26:07.980Z,11.77
2022-09-30T00:28:35.003Z,11.71
2022-09-30T00:31:05.298Z,11.70
2022-09-30T00:33:32.319Z,11.76
2022-09-30T00:35:59.409Z,11.68
2022-09-30T00:38:26.411Z,11.72
2022-09-30T00:40:53.607Z,11.70
2022-09-30T00:43:42.531Z,11.66
2022-09-30T00:46:21.595Z,11.71
2022-09-30T00:48:54.038Z,11.83
2022-09-30T00:51:45.491Z,11.79
2022-09-30T00:54:22.647Z,11.76
2022-09-30T00:56:53.153Z,11.75
2022-09-30T00:59:38.282Z,11.85
2022-09-30T01:02:05.908Z,11.87
2022-09-30T01:04:33.005Z,11.73
2022-09-30T01:07:05.644Z,11.73
2022-09-30T01:09:34.241Z,11.86
2022-09-30T01:12:07.148Z,11.74
2022-09-30T01:14:35.812Z,11.85
2022-09-30T01:17:29.837Z,11.87
2022-09-30T01:20:15.850Z,11.79
2022-09-30T01:23:08.649Z,11.87
2022-09-30T01:25:55.362Z,11.80
2022-09-30T01:28:44.735Z,11.83
2022-09-30T01:31:56.715Z,11.84
2022-09-30T01:34:51.107Z,11.89
2022-09-30T01:37:25.547Z,11.94
2022-09-30T01:40:07.039Z,11.88
2022-09-30T01:42:44.329Z,11.87
2022-09-30T01:45:32.248Z,11.79
2022-09-30T01:48:17.056Z,11.94
2022-09-30T01:50:54.538Z,11.92
2022-09-30T01:53:42.006Z,11.87
2022-09-30T01:56:22.992Z,11.84
2022-09-30T01:59:05.841Z,11.84
2022-09-30T02:01:36.705Z,11.79
2022-09-30T02:04:41.821Z,11.86
2022-09-30T02:07:16.258Z,11.83
2022-09-30T02:09:59.007Z,11.82
2022-09-30T02:12:28.492Z,11.74
2022-09-30T02:15:26.214Z,11.82
2022-09-30T02:18:02.753Z,11.77
2022-09-30T02:20:39.697Z,11.77
2022-09-30T02:23:28.497Z,11.88
2022-09-30T02:26:28.174Z,11.70
2022-09-30T02:29:04.435Z,11.79
2022-09-30T02:31:33.468Z,11.74
2022-09-30T02:34:08.549Z,11.70
2022-09-30T02:36:39.595Z,11.70
2022-09-30T02:39:07.355Z,11.72
2022-09-30T02:41:39.074Z,11.74
2022-09-30T02:44:06.695Z,11.72
2022-09-30T02:46:55.186Z,11.68
2022-09-30T02:49:47.785Z,11.72
2022-09-30T02:52:25.709Z,11.70
2022-09-30T02:55:14.357Z,11.71
2022-09-30T02:58:10.073Z,11.65
2022-09-30T03:00:37.294Z,11.64
2022-09-30T03:03:21.981Z,11.75
2022-09-30T03:05:49.814Z,11.70
2022-09-30T03:08:16.664Z,11.75
2022-09-30T03:10:44.483Z,11.67
2022-09-30T03:13:21.826Z,11.71
2022-09-30T03:16:01.257Z,11.66
2022-09-30T03:18:52.503Z,11.68
2022-09-30T03:21:22.040Z,11.67
2022-09-30T03:24:07.158Z,11.53
2022-09-30T03:26:38.351Z,11.54
2022-09-30T03:29:11.772Z,11.53
2022-09-30T03:31:41.306Z,11.48
2022-09-30T03:34:22.065Z,11.46
2022-09-30T03:37:04.598Z,11.43
2022-09-30T03:39:53.274Z,11.45
2022-09-30T03:42:28.459Z,11.42
2022-09-30T03:45:08.929Z,11.47
2022-09-30T03:47:41.203Z,11.51
2022-09-30T03:50:10.166Z,11.50
2022-09-30T03:52:37.444Z,11.45
2022-09-30T03:55:06.398Z,11.42
2022-09-30T03:57:33.118Z,11.44
2022-09-30T04:00:00.855Z,11.32
2022-09-30T04:02:27.967Z,11.47
2022-09-30T04:04:55.097Z,11.44
2022-09-30T04:07:21.870Z,11.40
2022-09-30T04:09:48.733Z,11.33
2022-09-30T04:12:15.475Z,11.27
2022-09-30T04:14:42.335Z,11.19
2022-09-30T04:17:09.168Z,11.25
2022-09-30T04:19:40.037Z,11.21
2022-09-30T04:22:08.005Z,11.30
2022-09-30T04:24:35.316Z,11.22
2022-09-30T04:27:02.728Z,11.11
2022-09-30T04:29:29.506Z,11.14
2022-09-30T04:31:56.930Z,11.26
2022-09-30T04:34:23.882Z,11.19
2022-09-30T04:36:50.624Z,11.24
2022-09-30T04:39:17.356Z,11.28
2022-09-30T04:41:44.157Z,11.28
2022-09-30T04:44:10.887Z,11.39
2022-09-30T04:46:37.716Z,11.40
2022-09-30T04:49:08.833Z,11.38
2022-09-30T04:51:36.673Z,11.34
2022-09-30T04:54:03.600Z,11.27
2022-09-30T04:56:30.415Z,11.36
2022-09-30T04:58:57.474Z,11.35
2022-09-30T05:01:24.446Z,11.36
2022-09-30T05:03:51.230Z,11.30
2022-09-30T05:06:18.131Z,11.35
2022-09-30T05:08:46.434Z,11.31
2022-09-30T05:11:18.808Z,11.32
2022-09-30T05:13:46.587Z,11.34
2022-09-30T05:16:14.002Z,11.30
2022-09-30T05:18:45.715Z,11.33
2022-09-30T05:21:18.127Z,11.39
2022-09-30T05:23:45.399Z,11.38
2022-09-30T05:26:13.047Z,11.43
2022-09-30T05:28:41.369Z,11.41
2022-09-30T05:31:08.524Z,11.38
2022-09-30T05:33:36.182Z,11.43
2022-09-30T05:36:06.326Z,11.43
2022-09-30T05:38:33.897Z,11.49
2022-09-30T05:41:11.637Z,11.50
2022-09-30T05:43:40.090Z,11.52
2022-09-30T05:46:07.189Z,11.48
2022-09-30T05:48:34.755Z,11.52
2022-09-30T05:51:01.796Z,11.41
2022-09-30T05:53:31.966Z,11.41
2022-09-30T05:55:59.512Z,11.49
2022-09-30T05:58:27.518Z,11.50
2022-09-30T06:00:54.479Z,11.50
2022-09-30T06:03:21.456Z,11.49
2022-09-30T06:05:48.404Z,11.53
2022-09-30T06:08:15.893Z,11.48
2022-09-30T06:10:44.569Z,11.51
2022-09-30T06:13:11.752Z,11.49
2022-09-30T06:15:39.743Z,11.49
2022-09-30T06:18:06.751Z,11.50
2022-09-30T06:20:33.967Z,11.47
2022-09-30T06:23:01.025Z,11.48
2022-09-30T06:25:31.566Z,11.44
2022-09-30T06:27:58.879Z,11.48
2022-09-30T06:30:25.829Z,11.49
2022-09-30T06:32:54.195Z,11.42
2022-09-30T06:35:24.035Z,11.49
2022-09-30T06:37:51.851Z,11.39
2022-09-30T06:40:21.246Z,11.43
2022-09-30T06:42:49.348Z,11.46
2022-09-30T06:45:30.596Z,11.42
2022-09-30T06:48:01.221Z,11.50
2022-09-30T06:50:29.609Z,11.47
2022-09-30T06:53:06.288Z,11.49
2022-09-30T06:55:34.160Z,11.42
2022-09-30T06:58:01.232Z,11.45
2022-09-30T07:00:29.072Z,11.46
2022-09-30T07:02:59.260Z,11.47
2022-09-30T07:05:26.603Z,11.48
2022-09-30T07:07:54.010Z,11.54
2022-09-30T07:10:21.081Z,11.61
2022-09-30T07:12:52.032Z,11.59
2022-09-30T07:15:23.290Z,11.56
2022-09-30T07:17:59.070Z,11.49
2022-09-30T07:20:25.913Z,11.50
2022-09-30T07:22:52.661Z,11.48
2022-09-30T07:25:19.828Z,11.42
2022-09-30T07:27:46.899Z,11.44
2022-09-30T07:30:21.540Z,11.47
2022-09-30T07:32:51.558Z,11.46
2022-09-30T07:35:19.512Z,11.40
2022-09-30T07:37:46.308Z,11.40
2022-09-30T07:40:13.108Z,11.40
2022-09-30T07:42:49.210Z,11.33
2022-09-30T07:45:19.393Z,11.30
2022-09-30T07:47:50.982Z,11.33
2022-09-30T07:50:20.153Z,11.22
2022-09-30T07:52:47.040Z,11.14
2022-09-30T07:55:13.859Z,11.08
2022-09-30T07:57:40.704Z,11.07
2022-09-30T08:00:37.214Z,11.05
2022-09-30T08:02:55.060Z,11.15
2022-09-30T08:05:21.837Z,11.06
2022-09-30T08:07:48.797Z,10.95
2022-09-30T08:10:15.704Z,10.94
2022-09-30T08:12:42.520Z,10.93
2022-09-30T08:15:09.822Z,10.94
2022-09-30T08:17:36.776Z,10.89
2022-09-30T08:20:04.021Z,10.87
2022-09-30T08:22:30.783Z,10.84
2022-09-30T08:24:57.608Z,10.83
2022-09-30T08:27:24.469Z,10.82
2022-09-30T08:29:56.565Z,10.82
2022-09-30T08:32:25.168Z,10.82
2022-09-30T08:34:51.862Z,10.85
2022-09-30T08:37:18.667Z,10.80
2022-09-30T08:39:48.557Z,10.77
2022-09-30T08:42:39.375Z,10.83
2022-09-30T08:45:30.688Z,10.83
2022-09-30T08:50:54.073Z,10.85
2022-09-30T08:53:26.806Z,10.86
2022-09-30T08:55:57.177Z,10.87
2022-09-30T08:58:33.892Z,10.89
2022-09-30T09:01:31.651Z,10.86
2022-09-30T09:04:00.099Z,10.83
2022-09-30T09:06:27.266Z,10.84
2022-09-30T09:09:15.643Z,10.89
2022-09-30T09:11:56.851Z,10.91
2022-09-30T09:14:26.607Z,10.92
2022-09-30T09:17:32.117Z,10.90
2022-09-30T09:20:02.362Z,10.92
2022-09-30T09:22:30.773Z,10.97
2022-09-30T09:24:58.206Z,10.94
2022-09-30T09:27:51.825Z,10.92
2022-09-30T09:30:24.185Z,10.94
2022-09-30T09:32:58.502Z,10.92
2022-09-30T09:35:39.318Z,10.88
2022-09-30T09:38:24.886Z,10.89
2022-09-30T09:41:06.958Z,10.94
2022-09-30T09:43:43.978Z,10.92
2022-09-30T09:46:40.038Z,10.92
2022-09-30T09:49:24.200Z,10.86
2022-09-30T09:52:03.183Z,10.80
2022-09-30T09:54:31.215Z,10.80
2022-09-30T09:57:09.485Z,10.80
2022-09-30T09:59:58.306Z,10.76
2022-09-30T10:02:28.607Z,10.71
2022-09-30T10:05:11.592Z,10.70
2022-09-30T10:07:38.379Z,10.71
2022-09-30T10:10:23.709Z,10.76
2022-09-30T10:12:51.134Z,10.80
2022-09-30T10:15:22.935Z,10.77
2022-09-30T10:17:53.156Z,10.72
2022-09-30T10:20:35.289Z,10.71
2022-09-30T10:23:20.745Z,10.71
2022-09-30T10:26:03.701Z,10.70
2022-09-30T10:28:45.849Z,10.69
2022-09-30T10:31:23.540Z,10.69
2022-09-30T10:34:20.450Z,10.68
2022-09-30T10:36:47.409Z,10.69
2022-09-30T10:39:24.627Z,10.65
2022-09-30T10:41:59.817Z,10.63
2022-09-30T10:44:26.978Z,10.64
2022-09-30T10:46:59.473Z,10.65
2022-09-30T10:49:30.108Z,10.65
2022-09-30T10:51:57.869Z,10.68
2022-09-30T10:54:49.517Z,10.69
2022-09-30T10:57:30.009Z,10.67
2022-09-30T11:00:08.434Z,10.66
2022-09-30T11:02:41.657Z,10.67
2022-09-30T11:05:20.910Z,10.64
2022-09-30T11:08:01.129Z,10.62
2022-09-30T11:10:36.810Z,10.59
2022-09-30T11:13:25.267Z,10.59
2022-09-30T11:16:42.622Z,10.61
2022-09-30T11:19:31.724Z,10.63
2022-09-30T11:22:16.769Z,10.59
2022-09-30T11:24:50.452Z,10.57
2022-09-30T11:27:29.305Z,10.57
2022-09-30T11:30:15.786Z,10.56
2022-09-30T11:32:49.184Z,10.57
2022-09-30T11:35:34.768Z,10.62
2022-09-30T11:38:31.679Z,10.64
2022-09-30T11:41:27.669Z,10.62
2022-09-30T11:44:13.212Z,10.60
2022-09-30T11:47:18.793Z,10.62
2022-09-30T11:50:05.083Z,10.59
2022-09-30T11:53:01.708Z,10.61
2022-09-30T11:55:46.426Z,10.61
2022-09-30T11:58:41.951Z,10.61
2022-09-30T12:01:17.848Z,10.65
2022-09-30T12:03:48.356Z,10.62
2022-09-30T12:06:24.759Z,10.59
2022-09-30T12:09:01.212Z,10.67
2022-09-30T12:11:49.904Z,10.69
2022-09-30T12:14:44.883Z,10.66
2022-09-30T12:17:42.169Z,10.69
2022-09-30T12:20:41.168Z,10.69
2022-09-30T12:23:28.719Z,10.68
2022-09-30T12:25:57.773Z,10.70
2022-09-30T12:28:45.828Z,10.73
2022-09-30T12:31:49.319Z,10.70
2022-09-30T12:34:36.043Z,10.71
2022-09-30T12:37:10.059Z,10.70
2022-09-30T12:40:01.323Z,10.71
2022-09-30T12:42:33.302Z,10.71
2022-09-30T12:45:17.834Z,10.71
2022-09-30T12:47:50.252Z,10.72
2022-09-30T12:50:20.584Z,10.73
2022-09-30T12:52:47.900Z,10.76
2022-09-30T12:55:31.186Z,10.77
2022-09-30T12:58:05.223Z,10.76
2022-09-30T13:00:37.767Z,10.75
2022-09-30T13:03:08.199Z,10.80
2022-09-30T13:05:34.954Z,10.80
2022-09-30T13:08:07.203Z,10.83
2022-09-30T13:10:45.106Z,10.78
2022-09-30T13:13:29.111Z,10.80
2022-09-30T13:16:03.093Z,10.78
2022-09-30T13:18:29.900Z,10.81
2022-09-30T13:21:05.625Z,10.84
2022-09-30T13:23:43.123Z,10.88
2022-09-30T13:26:33.242Z,10.88
2022-09-30T13:29:00.258Z,10.89
2022-09-30T13:31:28.604Z,10.87
2022-09-30T13:34:01.597Z,10.89
2022-09-30T13:37:01.716Z,10.89
2022-09-30T13:39:31.659Z,10.88
2022-09-30T13:42:11.682Z,10.92
2022-09-30T13:44:57.270Z,10.94
2022-09-30T13:47:44.012Z,10.93
2022-09-30T13:50:18.552Z,10.85
2022-09-30T13:52:53.784Z,10.88
2022-09-30T13:55:25.331Z,10.94
2022-09-30T13:57:54.957Z,10.95
2022-09-30T14:00:22.519Z,10.99
2022-09-30T14:03:04.048Z,11.08
2022-09-30T14:05:42.159Z,11.14
2022-09-30T14:08:18.173Z,11.20
2022-09-30T14:11:16.548Z,11.24
2022-09-30T14:14:06.307Z,11.35
2022-09-30T14:16:59.327Z,11.45
2022-09-30T14:19:51.274Z,11.51
2022-09-30T14:22:19.391Z,11.63
2022-09-30T14:24:46.345Z,11.65
2022-09-30T14:27:39.929Z,11.79
2022-09-30T14:30:19.731Z,11.91
2022-09-30T14:32:50.477Z,11.98
2022-09-30T14:35:28.267Z,12.18
2022-09-30T14:37:58.415Z,12.42
2022-09-30T14:40:29.047Z,12.53
2022-09-30T14:43:01.448Z,12.63
2022-09-30T14:45:34.287Z,12.67
2022-09-30T14:48:11.106Z,12.77
2022-09-30T14:50:44.689Z,12.81
2022-09-30T14:53:25.471Z,12.81
2022-09-30T14:55:52.816Z,12.71
2022-09-30T14:58:30.837Z,12.77
2022-09-30T15:01:05.942Z,12.72
2022-09-30T15:03:39.532Z,12.90
2022-09-30T15:06:17.612Z,12.95
2022-09-30T15:08:44.853Z,13.49
2022-09-30T15:11:18.211Z,14.28
2022-09-30T15:13:45.330Z,16.04
2022-09-30T15:16:25.728Z,17.09
2022-09-30T15:18:53.869Z,18.29
2022-09-30T15:21:22.193Z,18.24
2022-09-30T15:23:52.328Z,19.24
2022-09-30T15:26:25.284Z,19.66
2022-09-30T15:28:52.538Z,19.96
2022-09-30T15:31:26.712Z,19.31
2022-09-30T15:34:05.770Z,19.69
2022-09-30T15:36:34.976Z,19.09
2022-09-30T15:39:02.910Z,19.33
2022-09-30T15:41:29.758Z,19.14
2022-09-30T15:44:00.380Z,18.82
2022-09-30T15:46:33.862Z,17.80
2022-09-30T15:49:02.995Z,17.66
2022-09-30T15:51:32.927Z,18.42
2022-09-30T15:54:02.317Z,18.79
2022-09-30T15:56:30.941Z,17.77
2022-09-30T15:59:00.125Z,16.71
2022-09-30T16:01:33.080Z,15.94
2022-09-30T16:04:26.735Z,15.42
2022-09-30T16:06:54.013Z,15.02
2022-09-30T16:09:21.929Z,14.96
2022-09-30T16:12:12.036Z,14.79
2022-09-30T16:14:48.403Z,14.53
2022-09-30T16:17:21.603Z,14.42
2022-09-30T16:20:00.168Z,14.17
2022-09-30T16:22:33.129Z,14.06
2022-09-30T16:25:08.113Z,13.87
2022-09-30T16:27:34.928Z,13.67
2022-09-30T16:30:02.265Z,13.61
2022-09-30T16:32:31.385Z,13.59
2022-09-30T16:34:58.174Z,13.62
2022-09-30T16:37:25.154Z,13.57
2022-09-30T16:39:51.918Z,13.54
2022-09-30T16:42:19.467Z,13.34
2022-09-30T16:44:46.273Z,13.31
2022-09-30T16:47:17.352Z,13.38
2022-09-30T16:49:45.234Z,13.35
2022-09-30T16:52:13.001Z,13.31
2022-09-30T16:54:40.881Z,13.18
2022-09-30T16:57:07.657Z,13.26
2022-09-30T16:59:34.625Z,13.18
2022-09-30T17:02:01.689Z,13.08
2022-09-30T17:04:28.551Z,13.03
2022-09-30T17:06:57.426Z,12.93
2022-09-30T17:09:24.294Z,12.82
2022-09-30T17:11:51.865Z,12.77
2022-09-30T17:14:18.752Z,12.67
2022-09-30T17:16:46.581Z,12.51
2022-09-30T17:19:14.130Z,12.48
2022-09-30T17:21:40.984Z,12.41
2022-09-30T17:24:07.865Z,12.18
2022-09-30T17:26:34.914Z,12.18
2022-09-30T17:29:30.824Z,12.19
2022-09-30T17:31:50.835Z,12.01
2022-09-30T17:34:18.070Z,11.94
2022-09-30T17:36:45.031Z,11.95
2022-09-30T17:39:11.754Z,11.91
2022-09-30T17:41:56.868Z,11.81
2022-09-30T17:44:24.592Z,11.65
2022-09-30T17:47:00.334Z,11.65
2022-09-30T17:49:34.985Z,11.47
2022-09-30T17:52:02.345Z,11.41
2022-09-30T17:54:29.496Z,11.51
2022-09-30T17:56:57.358Z,11.45
2022-09-30T17:59:26.794Z,11.45
2022-09-30T18:01:56.455Z,11.14
2022-09-30T18:04:26.129Z,11.14
2022-09-30T18:06:56.639Z,11.12
2022-09-30T18:09:23.762Z,11.12
2022-09-30T18:11:50.549Z,11.04
2022-09-30T18:14:17.669Z,11.02
2022-09-30T18:16:45.128Z,10.96
2022-09-30T18:19:11.929Z,11.06
2022-09-30T18:21:38.887Z,11.00
2022-09-30T18:24:07.778Z,10.98
2022-09-30T18:26:36.029Z,10.84
2022-09-30T18:29:03.928Z,10.78
2022-09-30T18:31:38.187Z,10.65
2022-09-30T18:34:06.575Z,10.62
2022-09-30T18:36:33.399Z,10.62
2022-09-30T18:39:02.086Z,10.67
2022-09-30T18:41:30.648Z,10.69
2022-09-30T18:44:02.491Z,10.50
2022-09-30T18:46:30.632Z,10.37
2022-09-30T18:48:57.863Z,10.44
2022-09-30T18:51:25.232Z,10.00
2022-09-30T18:53:57.736Z,10.37
2022-09-30T18:56:32.477Z,10.30
2022-09-30T18:59:00.470Z,10.14
2022-09-30T19:01:27.804Z,10.23
2022-09-30T19:03:54.704Z,10.27
2022-09-30T19:06:21.468Z,9.91
2022-09-30T19:08:48.784Z,9.63
2022-09-30T19:11:16.288Z,9.61
2022-09-30T19:13:45.105Z,9.88
2022-09-30T19:16:12.220Z,9.42
2022-09-30T19:18:40.169Z,9.37
2022-09-30T19:21:10.045Z,9.32
2022-09-30T19:23:37.452Z,9.05
2022-09-30T19:26:05.207Z,9.17
2022-09-30T19:28:32.303Z,9.14
2022-09-30T19:31:05.273Z,9.13
2022-09-30T19:33:35.335Z,8.99
2022-09-30T19:36:14.765Z,9.04
2022-09-30T19:38:45.236Z,9.13
2022-09-30T19:41:13.907Z,9.21
2022-09-30T19:43:40.861Z,9.21
2022-09-30T19:46:09.933Z,9.12
2022-09-30T19:48:37.066Z,8.79
2022-09-30T19:51:07.217Z,8.96
2022-09-30T19:53:40.898Z,8.87
2022-09-30T19:56:12.600Z,9.18
2022-09-30T19:58:40.463Z,9.18
2022-09-30T20:01:09.527Z,8.82
2022-09-30T20:03:37.407Z,8.60
2022-09-30T20:06:12.552Z,8.67
2022-09-30T20:08:40.273Z,8.61
2022-09-30T20:11:09.728Z,8.57
2022-09-30T20:13:37.391Z,8.82
2022-09-30T20:16:07.399Z,8.78
2022-09-30T20:18:34.908Z,9.10
2022-09-30T20:21:01.614Z,9.13
2022-09-30T20:24:17.889Z,9.38
2022-09-30T20:26:45.249Z,9.34
2022-09-30T20:29:12.151Z,9.39
2022-09-30T20:31:43.402Z,9.45
2022-09-30T20:34:12.676Z,9.36
2022-09-30T20:36:40.337Z,9.29
2022-09-30T20:39:07.934Z,9.26
2022-09-30T20:41:36.937Z,9.29
2022-09-30T20:44:08.084Z,9.33
2022-09-30T20:46:35.133Z,9.31
2022-09-30T20:49:02.630Z,9.26
2022-09-30T20:51:30.817Z,9.43
2022-09-30T20:53:59.112Z,9.32
2022-09-30T20:56:35.647Z,9.31
2022-09-30T20:59:11.125Z,9.27
2022-09-30T21:01:37.934Z,9.21
2022-09-30T21:04:05.817Z,9.18
2022-09-30T21:06:33.389Z,9.29
2022-09-30T21:09:03.238Z,9.29
2022-09-30T21:11:30.248Z,9.28
2022-09-30T21:13:58.058Z,9.32
2022-09-30T21:16:25.884Z,9.26
2022-09-30T21:18:53.599Z,9.25
2022-09-30T21:21:21.738Z,9.24
2022-09-30T21:23:48.993Z,9.25
2022-09-30T21:26:17.294Z,9.27
2022-09-30T21:28:49.353Z,9.26
2022-09-30T21:31:27.403Z,9.29
2022-09-30T21:33:58.792Z,9.26
2022-09-30T21:36:29.716Z,9.28
2022-09-30T21:39:01.337Z,9.22
2022-09-30T21:41:28.718Z,9.04
2022-09-30T21:43:55.910Z,8.91
2022-09-30T21:46:23.317Z,8.95
2022-09-30T21:48:50.495Z,8.86
2022-09-30T21:51:17.980Z,8.71
2022-09-30T21:53:46.844Z,8.81
2022-09-30T21:56:13.796Z,8.79
2022-09-30T21:58:40.518Z,8.76
2022-09-30T22:01:07.814Z,8.80
2022-09-30T22:03:37.545Z,8.81
2022-09-30T22:06:09.312Z,9.14
2022-09-30T22:08:40.782Z,9.11
2022-09-30T22:11:15.236Z,9.18
2022-09-30T22:13:45.970Z,9.00
2022-09-30T22:16:17.006Z,8.99
2022-09-30T22:18:43.726Z,9.09
2022-09-30T22:21:12.723Z,8.97
2022-09-30T22:23:39.829Z,8.96
2022-09-30T22:26:17.093Z,8.85
2022-09-30T22:28:45.270Z,8.78
2022-09-30T22:31:18.536Z,8.50
2022-09-30T22:34:08.926Z,8.38
2022-09-30T22:36:54.661Z,8.28
2022-09-30T22:39:22.270Z,8.27
2022-09-30T22:41:55.478Z,8.43
2022-09-30T22:44:25.547Z,8.45
2022-09-30T22:46:53.465Z,8.27
2022-09-30T22:49:23.100Z,8.16
2022-09-30T22:51:53.615Z,8.25
2022-09-30T22:54:20.674Z,8.22
2022-09-30T22:56:50.422Z,8.49
2022-09-30T22:59:18.869Z,8.42
2022-09-30T23:01:45.867Z,8.34
2022-09-30T23:04:15.342Z,8.15
2022-09-30T23:06:42.837Z,8.32
2022-09-30T23:09:09.978Z,8.46
2022-09-30T23:11:36.940Z,8.60
2022-09-30T23:14:03.789Z,8.69
2022-09-30T23:16:30.635Z,8.67
2022-09-30T23:18:58.353Z,8.62
2022-09-30T23:21:25.538Z,8.80
2022-09-30T23:23:52.767Z,8.91
2022-09-30T23:26:21.779Z,8.97
2022-09-30T23:28:49.322Z,9.05
2022-09-30T23:31:16.996Z,9.06
2022-09-30T23:33:49.494Z,9.03
2022-09-30T23:36:18.472Z,9.16
2022-09-30T23:38:46.376Z,9.13
2022-09-30T23:41:13.812Z,9.24
2022-09-30T23:43:43.264Z,9.32
2022-09-30T23:46:09.999Z,9.25
2022-09-30T23:48:38.212Z,9.26
2022-09-30T23:51:05.699Z,9.25
2022-09-30T23:53:34.207Z,9.24
2022-09-30T23:56:04.414Z,9.12
2022-09-30T23:58:32.874Z,9.12
